sensor_id;sensor_type;location;lat;lon;timestamp;P1;durP1;ratioP1;P2;durP2;ratioP2
7497;SDS011;3790;48.806;9.140;2022-08-19T00:01:51;2.50;;;1.73;;
7497;SDS011;3790;48.806;9.140;2022-08-19T00:06:53;1.42;;;1.00;;
7497;SDS011;3790;48.806;9.140;2022-08-19T00:11:54;2.72;;;1.48;;
7497;SDS011;3790;48.806;9.140;2022-08-19T00:16:56;2.33;;;1.88;;
7497;SDS011;3790;48.806;9.140;2022-08-19T00:21:57;2.47;;;1.38;;
7497;SDS011;3790;48.806;9.140;2022-08-19T00:26:58;3.22;;;1.60;;
7497;SDS011;3790;48.806;9.140;2022-08-19T00:31:58;2.53;;;1.88;;
7497;SDS011;3790;48.806;9.140;2022-08-19T00:36:59;1.73;;;1.30;;
7497;SDS011;3790;48.806;9.140;2022-08-19T00:42:00;2.33;;;1.30;;
7497;SDS011;3790;48.806;9.140;2022-08-19T00:47:00;3.03;;;1.25;;
7497;SDS011;3790;48.806;9.140;2022-08-19T00:52:06;1.65;;;1.13;;
7497;SDS011;3790;48.806;9.140;2022-08-19T00:57:33;3.40;;;1.75;;
7497;SDS011;3790;48.806;9.140;2022-08-19T01:02:36;2.45;;;1.98;;
7497;SDS011;3790;48.806;9.140;2022-08-19T01:07:37;3.15;;;1.75;;
7497;SDS011;3790;48.806;9.140;2022-08-19T01:12:40;4.93;;;2.15;;
7497;SDS011;3790;48.806;9.140;2022-08-19T01:17:41;1.13;;;0.70;;
7497;SDS011;3790;48.806;9.140;2022-08-19T01:22:44;3.00;;;2.17;;
7497;SDS011;3790;48.806;9.140;2022-08-19T01:27:49;2.10;;;1.17;;
7497;SDS011;3790;48.806;9.140;2022-08-19T01:32:51;2.97;;;2.00;;
7497;SDS011;3790;48.806;9.140;2022-08-19T01:38:02;1.85;;;1.42;;
7497;SDS011;3790;48.806;9.140;2022-08-19T01:43:08;3.92;;;1.60;;
7497;SDS011;3790;48.806;9.140;2022-08-19T01:48:09;4.50;;;2.28;;
7497;SDS011;3790;48.806;9.140;2022-08-19T01:53:10;3.03;;;1.58;;
7497;SDS011;3790;48.806;9.140;2022-08-19T01:58:15;3.72;;;1.52;;
7497;SDS011;3790;48.806;9.140;2022-08-19T02:03:20;2.30;;;1.67;;
7497;SDS011;3790;48.806;9.140;2022-08-19T02:08:21;2.55;;;1.88;;
7497;SDS011;3790;48.806;9.140;2022-08-19T02:13:22;1.70;;;1.27;;
7497;SDS011;3790;48.806;9.140;2022-08-19T02:18:23;4.35;;;2.30;;
7497;SDS011;3790;48.806;9.140;2022-08-19T02:23:24;4.07;;;1.77;;
7497;SDS011;3790;48.806;9.140;2022-08-19T02:28:24;2.53;;;1.63;;
7497;SDS011;3790;48.806;9.140;2022-08-19T02:33:25;1.50;;;1.33;;
7497;SDS011;3790;48.806;9.140;2022-08-19T02:38:26;0.85;;;0.82;;
7497;SDS011;3790;48.806;9.140;2022-08-19T02:43:26;2.90;;;2.20;;
7497;SDS011;3790;48.806;9.140;2022-08-19T02:48:28;2.30;;;1.63;;
7497;SDS011;3790;48.806;9.140;2022-08-19T02:53:29;2.72;;;0.98;;
7497;SDS011;3790;48.806;9.140;2022-08-19T02:58:29;4.47;;;2.45;;
7497;SDS011;3790;48.806;9.140;2022-08-19T03:03:30;2.50;;;1.67;;
7497;SDS011;3790;48.806;9.140;2022-08-19T03:08:31;1.92;;;1.48;;
7497;SDS011;3790;48.806;9.140;2022-08-19T03:13:32;1.60;;;1.33;;
7497;SDS011;3790;48.806;9.140;2022-08-19T03:18:33;4.53;;;2.50;;
7497;SDS011;3790;48.806;9.140;2022-08-19T03:23:34;1.52;;;1.25;;
7497;SDS011;3790;48.806;9.140;2022-08-19T03:28:35;2.97;;;1.73;;
7497;SDS011;3790;48.806;9.140;2022-08-19T03:33:36;4.65;;;2.30;;
7497;SDS011;3790;48.806;9.140;2022-08-19T03:38:38;4.65;;;2.17;;
7497;SDS011;3790;48.806;9.140;2022-08-19T03:43:42;2.28;;;1.77;;
7497;SDS011;3790;48.806;9.140;2022-08-19T03:48:43;3.95;;;2.38;;
7497;SDS011;3790;48.806;9.140;2022-08-19T03:53:44;2.13;;;1.55;;
7497;SDS011;3790;48.806;9.140;2022-08-19T03:58:45;5.20;;;3.75;;
7497;SDS011;3790;48.806;9.140;2022-08-19T04:03:46;3.80;;;3.30;;
7497;SDS011;3790;48.806;9.140;2022-08-19T04:08:48;2.33;;;2.10;;
7497;SDS011;3790;48.806;9.140;2022-08-19T04:13:51;3.25;;;2.70;;
7497;SDS011;3790;48.806;9.140;2022-08-19T04:18:52;3.45;;;1.33;;
7497;SDS011;3790;48.806;9.140;2022-08-19T04:23:53;3.05;;;2.08;;
7497;SDS011;3790;48.806;9.140;2022-08-19T04:28:55;3.15;;;2.28;;
7497;SDS011;3790;48.806;9.140;2022-08-19T04:33:56;4.90;;;2.00;;
7497;SDS011;3790;48.806;9.140;2022-08-19T04:38:59;3.67;;;2.28;;
7497;SDS011;3790;48.806;9.140;2022-08-19T04:44:01;4.07;;;2.58;;
7497;SDS011;3790;48.806;9.140;2022-08-19T04:49:03;2.55;;;1.88;;
7497;SDS011;3790;48.806;9.140;2022-08-19T04:54:05;4.20;;;3.13;;
7497;SDS011;3790;48.806;9.140;2022-08-19T04:59:06;3.05;;;1.67;;
7497;SDS011;3790;48.806;9.140;2022-08-19T05:04:08;3.90;;;3.15;;
7497;SDS011;3790;48.806;9.140;2022-08-19T05:09:09;2.63;;;1.92;;
7497;SDS011;3790;48.806;9.140;2022-08-19T05:14:09;5.20;;;2.78;;
7497;SDS011;3790;48.806;9.140;2022-08-19T05:19:13;5.65;;;2.28;;
7497;SDS011;3790;48.806;9.140;2022-08-19T05:24:32;4.78;;;3.47;;
7497;SDS011;3790;48.806;9.140;2022-08-19T05:29:35;3.83;;;3.10;;
7497;SDS011;3790;48.806;9.140;2022-08-19T05:34:36;2.88;;;2.10;;
7497;SDS011;3790;48.806;9.140;2022-08-19T05:39:38;4.35;;;3.22;;
7497;SDS011;3790;48.806;9.140;2022-08-19T05:44:39;3.53;;;2.67;;
7497;SDS011;3790;48.806;9.140;2022-08-19T05:49:45;3.85;;;2.20;;
7497;SDS011;3790;48.806;9.140;2022-08-19T05:54:46;2.45;;;1.90;;
7497;SDS011;3790;48.806;9.140;2022-08-19T05:59:47;7.32;;;4.03;;
7497;SDS011;3790;48.806;9.140;2022-08-19T06:04:51;4.00;;;2.83;;
7497;SDS011;3790;48.806;9.140;2022-08-19T06:09:51;3.00;;;2.10;;
7497;SDS011;3790;48.806;9.140;2022-08-19T06:14:52;3.85;;;2.70;;
7497;SDS011;3790;48.806;9.140;2022-08-19T06:19:54;4.72;;;2.33;;
7497;SDS011;3790;48.806;9.140;2022-08-19T06:24:55;4.20;;;1.88;;
7497;SDS011;3790;48.806;9.140;2022-08-19T06:29:55;6.60;;;3.60;;
7497;SDS011;3790;48.806;9.140;2022-08-19T06:34:56;3.25;;;1.55;;
7497;SDS011;3790;48.806;9.140;2022-08-19T06:39:57;3.55;;;2.63;;
7497;SDS011;3790;48.806;9.140;2022-08-19T06:44:57;4.15;;;2.15;;
7497;SDS011;3790;48.806;9.140;2022-08-19T06:49:58;2.67;;;2.05;;
7497;SDS011;3790;48.806;9.140;2022-08-19T06:55:02;4.07;;;2.22;;
7497;SDS011;3790;48.806;9.140;2022-08-19T07:00:04;4.18;;;2.53;;
7497;SDS011;3790;48.806;9.140;2022-08-19T07:05:11;5.35;;;3.53;;
7497;SDS011;3790;48.806;9.140;2022-08-19T07:10:11;4.97;;;2.65;;
7497;SDS011;3790;48.806;9.140;2022-08-19T07:15:12;4.95;;;3.10;;
7497;SDS011;3790;48.806;9.140;2022-08-19T07:20:13;3.10;;;2.40;;
7497;SDS011;3790;48.806;9.140;2022-08-19T07:25:14;3.72;;;2.97;;
7497;SDS011;3790;48.806;9.140;2022-08-19T07:30:15;3.80;;;1.92;;
7497;SDS011;3790;48.806;9.140;2022-08-19T07:35:16;4.38;;;2.88;;
7497;SDS011;3790;48.806;9.140;2022-08-19T07:40:19;3.22;;;1.58;;
7497;SDS011;3790;48.806;9.140;2022-08-19T07:45:20;2.63;;;1.92;;
7497;SDS011;3790;48.806;9.140;2022-08-19T07:50:20;4.78;;;3.28;;
7497;SDS011;3790;48.806;9.140;2022-08-19T07:55:22;5.25;;;2.05;;
7497;SDS011;3790;48.806;9.140;2022-08-19T08:00:25;1.95;;;1.70;;
7497;SDS011;3790;48.806;9.140;2022-08-19T08:05:26;3.20;;;2.15;;
7497;SDS011;3790;48.806;9.140;2022-08-19T08:10:45;2.65;;;2.03;;
7497;SDS011;3790;48.806;9.140;2022-08-19T08:15:45;2.88;;;1.40;;
7497;SDS011;3790;48.806;9.140;2022-08-19T08:20:46;2.03;;;1.55;;
7497;SDS011;3790;48.806;9.140;2022-08-19T08:25:47;3.30;;;2.08;;
7497;SDS011;3790;48.806;9.140;2022-08-19T08:30:49;2.58;;;1.83;;
7497;SDS011;3790;48.806;9.140;2022-08-19T08:35:50;3.20;;;2.45;;
7497;SDS011;3790;48.806;9.140;2022-08-19T08:40:52;3.90;;;2.08;;
7497;SDS011;3790;48.806;9.140;2022-08-19T08:46:08;3.00;;;1.80;;
7497;SDS011;3790;48.806;9.140;2022-08-19T08:51:58;6.45;;;2.13;;
7497;SDS011;3790;48.806;9.140;2022-08-19T08:56:57;3.10;;;1.50;;
7497;SDS011;3790;48.806;9.140;2022-08-19T09:01:58;2.55;;;1.60;;
7497;SDS011;3790;48.806;9.140;2022-08-19T09:17:30;3.75;;;2.50;;
7497;SDS011;3790;48.806;9.140;2022-08-19T09:22:33;7.38;;;1.95;;
7497;SDS011;3790;48.806;9.140;2022-08-19T09:27:38;1.67;;;1.23;;
7497;SDS011;3790;48.806;9.140;2022-08-19T09:32:40;2.92;;;1.88;;
7497;SDS011;3790;48.806;9.140;2022-08-19T09:37:42;2.60;;;2.20;;
7497;SDS011;3790;48.806;9.140;2022-08-19T09:42:43;2.38;;;1.48;;
7497;SDS011;3790;48.806;9.140;2022-08-19T09:47:47;3.80;;;1.63;;
7497;SDS011;3790;48.806;9.140;2022-08-19T09:52:49;3.00;;;1.88;;
7497;SDS011;3790;48.806;9.140;2022-08-19T09:57:53;4.03;;;2.05;;
7497;SDS011;3790;48.806;9.140;2022-08-19T10:02:54;2.38;;;1.75;;
7497;SDS011;3790;48.806;9.140;2022-08-19T10:07:54;1.80;;;1.35;;
7497;SDS011;3790;48.806;9.140;2022-08-19T10:12:55;2.20;;;1.30;;
7497;SDS011;3790;48.806;9.140;2022-08-19T10:17:55;3.33;;;1.63;;
7497;SDS011;3790;48.806;9.140;2022-08-19T10:22:56;3.45;;;1.42;;
7497;SDS011;3790;48.806;9.140;2022-08-19T10:27:59;2.80;;;1.10;;
7497;SDS011;3790;48.806;9.140;2022-08-19T10:32:59;4.20;;;2.90;;
7497;SDS011;3790;48.806;9.140;2022-08-19T10:38:00;2.83;;;2.03;;
7497;SDS011;3790;48.806;9.140;2022-08-19T10:43:01;1.42;;;1.17;;
7497;SDS011;3790;48.806;9.140;2022-08-19T10:48:02;2.60;;;1.67;;
7497;SDS011;3790;48.806;9.140;2022-08-19T10:53:04;2.30;;;1.48;;
7497;SDS011;3790;48.806;9.140;2022-08-19T10:58:15;2.63;;;1.58;;
7497;SDS011;3790;48.806;9.140;2022-08-19T11:03:17;3.80;;;1.75;;
7497;SDS011;3790;48.806;9.140;2022-08-19T11:08:18;3.85;;;2.22;;
7497;SDS011;3790;48.806;9.140;2022-08-19T11:13:18;2.17;;;1.38;;
7497;SDS011;3790;48.806;9.140;2022-08-19T11:18:19;1.42;;;1.05;;
7497;SDS011;3790;48.806;9.140;2022-08-19T11:23:20;1.75;;;1.30;;
7497;SDS011;3790;48.806;9.140;2022-08-19T11:28:20;1.23;;;0.70;;
7497;SDS011;3790;48.806;9.140;2022-08-19T11:33:21;2.38;;;1.55;;
7497;SDS011;3790;48.806;9.140;2022-08-19T11:38:21;2.40;;;1.70;;
7497;SDS011;3790;48.806;9.140;2022-08-19T11:43:22;1.55;;;0.90;;
7497;SDS011;3790;48.806;9.140;2022-08-19T11:48:23;1.50;;;1.02;;
7497;SDS011;3790;48.806;9.140;2022-08-19T11:53:25;1.85;;;1.27;;
7497;SDS011;3790;48.806;9.140;2022-08-19T11:58:25;1.02;;;0.90;;
7497;SDS011;3790;48.806;9.140;2022-08-19T12:03:26;1.95;;;1.15;;
7497;SDS011;3790;48.806;9.140;2022-08-19T12:08:27;2.28;;;1.35;;
7497;SDS011;3790;48.806;9.140;2022-08-19T12:13:29;2.28;;;1.10;;
7497;SDS011;3790;48.806;9.140;2022-08-19T12:18:30;2.08;;;1.33;;
7497;SDS011;3790;48.806;9.140;2022-08-19T12:23:30;1.40;;;0.98;;
7497;SDS011;3790;48.806;9.140;2022-08-19T12:28:31;1.17;;;0.98;;
7497;SDS011;3790;48.806;9.140;2022-08-19T12:33:32;1.90;;;1.05;;
7497;SDS011;3790;48.806;9.140;2022-08-19T12:38:33;2.55;;;1.52;;
7497;SDS011;3790;48.806;9.140;2022-08-19T12:43:36;1.45;;;0.88;;
7497;SDS011;3790;48.806;9.140;2022-08-19T12:48:38;1.83;;;1.17;;
7497;SDS011;3790;48.806;9.140;2022-08-19T12:53:41;1.23;;;0.88;;
7497;SDS011;3790;48.806;9.140;2022-08-19T12:58:42;1.80;;;1.10;;
7497;SDS011;3790;48.806;9.140;2022-08-19T13:03:44;1.35;;;0.95;;
7497;SDS011;3790;48.806;9.140;2022-08-19T13:08:45;1.80;;;1.10;;
7497;SDS011;3790;48.806;9.140;2022-08-19T13:13:47;1.45;;;0.80;;
7497;SDS011;3790;48.806;9.140;2022-08-19T13:18:49;1.02;;;0.80;;
7497;SDS011;3790;48.806;9.140;2022-08-19T13:23:53;2.80;;;1.55;;
7497;SDS011;3790;48.806;9.140;2022-08-19T13:28:54;1.50;;;0.98;;
7497;SDS011;3790;48.806;9.140;2022-08-19T13:34:13;1.83;;;1.02;;
7497;SDS011;3790;48.806;9.140;2022-08-19T13:39:15;2.60;;;1.83;;
7497;SDS011;3790;48.806;9.140;2022-08-19T13:44:16;2.28;;;1.60;;
7497;SDS011;3790;48.806;9.140;2022-08-19T13:49:20;2.10;;;1.42;;
7497;SDS011;3790;48.806;9.140;2022-08-19T13:54:22;2.13;;;1.33;;
7497;SDS011;3790;48.806;9.140;2022-08-19T13:59:23;2.85;;;1.92;;
7497;SDS011;3790;48.806;9.140;2022-08-19T14:04:24;2.80;;;2.25;;
7497;SDS011;3790;48.806;9.140;2022-08-19T14:09:25;2.60;;;2.03;;
7497;SDS011;3790;48.806;9.140;2022-08-19T14:14:25;2.90;;;2.20;;
7497;SDS011;3790;48.806;9.140;2022-08-19T14:19:26;2.78;;;1.42;;
7497;SDS011;3790;48.806;9.140;2022-08-19T14:24:27;2.67;;;1.60;;
7497;SDS011;3790;48.806;9.140;2022-08-19T14:29:27;3.03;;;1.90;;
7497;SDS011;3790;48.806;9.140;2022-08-19T14:34:28;3.33;;;1.98;;
7497;SDS011;3790;48.806;9.140;2022-08-19T14:39:31;2.42;;;1.65;;
7497;SDS011;3790;48.806;9.140;2022-08-19T14:44:31;2.50;;;1.30;;
7497;SDS011;3790;48.806;9.140;2022-08-19T14:49:34;2.63;;;1.67;;
7497;SDS011;3790;48.806;9.140;2022-08-19T14:54:35;4.72;;;2.15;;
7497;SDS011;3790;48.806;9.140;2022-08-19T14:59:35;2.33;;;1.60;;
7497;SDS011;3790;48.806;9.140;2022-08-19T15:04:36;3.40;;;2.08;;
7497;SDS011;3790;48.806;9.140;2022-08-19T15:09:37;1.98;;;1.48;;
7497;SDS011;3790;48.806;9.140;2022-08-19T15:14:38;2.70;;;1.88;;
7497;SDS011;3790;48.806;9.140;2022-08-19T15:19:39;3.17;;;1.65;;
7497;SDS011;3790;48.806;9.140;2022-08-19T15:24:40;4.30;;;2.08;;
7497;SDS011;3790;48.806;9.140;2022-08-19T15:29:43;2.42;;;1.17;;
7497;SDS011;3790;48.806;9.140;2022-08-19T15:34:45;2.53;;;1.88;;
7497;SDS011;3790;48.806;9.140;2022-08-19T15:39:48;2.45;;;1.52;;
7497;SDS011;3790;48.806;9.140;2022-08-19T15:44:49;2.35;;;1.77;;
7497;SDS011;3790;48.806;9.140;2022-08-19T15:49:50;2.17;;;1.33;;
7497;SDS011;3790;48.806;9.140;2022-08-19T15:59:54;3.50;;;1.80;;
7497;SDS011;3790;48.806;9.140;2022-08-19T16:05:15;2.38;;;1.40;;
7497;SDS011;3790;48.806;9.140;2022-08-19T16:10:37;3.00;;;1.27;;
7497;SDS011;3790;48.806;9.140;2022-08-19T16:15:38;2.10;;;1.50;;
7497;SDS011;3790;48.806;9.140;2022-08-19T16:20:42;2.42;;;1.65;;
7497;SDS011;3790;48.806;9.140;2022-08-19T16:25:45;3.47;;;2.05;;
7497;SDS011;3790;48.806;9.140;2022-08-19T16:30:46;3.35;;;1.98;;
7497;SDS011;3790;48.806;9.140;2022-08-19T16:35:46;2.53;;;1.60;;
7497;SDS011;3790;48.806;9.140;2022-08-19T16:40:47;3.50;;;2.45;;
7497;SDS011;3790;48.806;9.140;2022-08-19T16:45:52;5.25;;;2.42;;
7497;SDS011;3790;48.806;9.140;2022-08-19T16:50:54;2.70;;;1.60;;
7497;SDS011;3790;48.806;9.140;2022-08-19T16:55:57;2.42;;;1.98;;
7497;SDS011;3790;48.806;9.140;2022-08-19T17:00:59;3.22;;;2.15;;
7497;SDS011;3790;48.806;9.140;2022-08-19T17:06:02;3.70;;;2.28;;
7497;SDS011;3790;48.806;9.140;2022-08-19T17:11:07;2.90;;;2.03;;
7497;SDS011;3790;48.806;9.140;2022-08-19T17:16:09;2.05;;;1.63;;
7497;SDS011;3790;48.806;9.140;2022-08-19T17:21:09;3.95;;;1.88;;
7497;SDS011;3790;48.806;9.140;2022-08-19T17:26:12;4.00;;;2.17;;
7497;SDS011;3790;48.806;9.140;2022-08-19T17:31:14;1.83;;;1.38;;
7497;SDS011;3790;48.806;9.140;2022-08-19T17:36:16;2.00;;;1.60;;
7497;SDS011;3790;48.806;9.140;2022-08-19T17:41:23;1.33;;;1.15;;
7497;SDS011;3790;48.806;9.140;2022-08-19T17:46:24;3.63;;;1.67;;
7497;SDS011;3790;48.806;9.140;2022-08-19T17:51:45;1.80;;;1.20;;
7497;SDS011;3790;48.806;9.140;2022-08-19T17:56:47;2.17;;;1.55;;
7497;SDS011;3790;48.806;9.140;2022-08-19T18:01:48;1.98;;;1.65;;
7497;SDS011;3790;48.806;9.140;2022-08-19T18:06:48;2.22;;;1.23;;
7497;SDS011;3790;48.806;9.140;2022-08-19T18:11:49;1.58;;;1.20;;
7497;SDS011;3790;48.806;9.140;2022-08-19T18:16:50;2.63;;;1.83;;
7497;SDS011;3790;48.806;9.140;2022-08-19T18:21:53;1.58;;;1.25;;
7497;SDS011;3790;48.806;9.140;2022-08-19T18:26:53;2.17;;;1.65;;
7497;SDS011;3790;48.806;9.140;2022-08-19T18:31:54;1.77;;;1.33;;
7497;SDS011;3790;48.806;9.140;2022-08-19T18:36:55;1.95;;;1.55;;
7497;SDS011;3790;48.806;9.140;2022-08-19T18:41:55;1.90;;;1.33;;
7497;SDS011;3790;48.806;9.140;2022-08-19T18:47:15;2.67;;;1.75;;
7497;SDS011;3790;48.806;9.140;2022-08-19T18:52:34;2.13;;;1.77;;
7497;SDS011;3790;48.806;9.140;2022-08-19T18:57:35;3.40;;;1.27;;
7497;SDS011;3790;48.806;9.140;2022-08-19T19:02:36;3.80;;;2.50;;
7497;SDS011;3790;48.806;9.140;2022-08-19T19:07:40;2.80;;;1.98;;
7497;SDS011;3790;48.806;9.140;2022-08-19T19:12:41;4.93;;;2.10;;
7497;SDS011;3790;48.806;9.140;2022-08-19T19:17:45;3.00;;;1.60;;
7497;SDS011;3790;48.806;9.140;2022-08-19T19:22:46;5.07;;;2.08;;
7497;SDS011;3790;48.806;9.140;2022-08-19T19:27:46;3.40;;;2.15;;
7497;SDS011;3790;48.806;9.140;2022-08-19T19:32:47;2.67;;;2.17;;
7497;SDS011;3790;48.806;9.140;2022-08-19T19:37:47;2.45;;;1.80;;
7497;SDS011;3790;48.806;9.140;2022-08-19T19:42:51;1.40;;;1.08;;
7497;SDS011;3790;48.806;9.140;2022-08-19T19:47:53;2.55;;;1.10;;
7497;SDS011;3790;48.806;9.140;2022-08-19T19:52:53;2.10;;;1.17;;
7497;SDS011;3790;48.806;9.140;2022-08-19T19:57:54;1.67;;;1.05;;
7497;SDS011;3790;48.806;9.140;2022-08-19T20:02:56;1.60;;;1.08;;
7497;SDS011;3790;48.806;9.140;2022-08-19T20:07:57;2.38;;;1.73;;
7497;SDS011;3790;48.806;9.140;2022-08-19T20:13:16;1.23;;;0.98;;
7497;SDS011;3790;48.806;9.140;2022-08-19T20:18:17;1.13;;;0.63;;
7497;SDS011;3790;48.806;9.140;2022-08-19T20:23:18;0.95;;;0.75;;
7497;SDS011;3790;48.806;9.140;2022-08-19T20:28:20;1.15;;;0.88;;
7497;SDS011;3790;48.806;9.140;2022-08-19T20:33:21;1.13;;;0.70;;
7497;SDS011;3790;48.806;9.140;2022-08-19T20:38:22;1.02;;;0.73;;
7497;SDS011;3790;48.806;9.140;2022-08-19T20:43:22;1.27;;;0.90;;
7497;SDS011;3790;48.806;9.140;2022-08-19T20:48:23;0.45;;;0.40;;
7497;SDS011;3790;48.806;9.140;2022-08-19T20:53:24;0.80;;;0.70;;
7497;SDS011;3790;48.806;9.140;2022-08-19T20:58:26;0.43;;;0.43;;
7497;SDS011;3790;48.806;9.140;2022-08-19T21:03:29;0.55;;;0.50;;
7497;SDS011;3790;48.806;9.140;2022-08-19T21:08:31;0.55;;;0.50;;
7497;SDS011;3790;48.806;9.140;2022-08-19T21:13:31;0.38;;;0.38;;
7497;SDS011;3790;48.806;9.140;2022-08-19T21:18:32;0.50;;;0.40;;
7497;SDS011;3790;48.806;9.140;2022-08-19T21:23:34;0.70;;;0.32;;
7497;SDS011;3790;48.806;9.140;2022-08-19T21:28:34;1.05;;;0.57;;
7497;SDS011;3790;48.806;9.140;2022-08-19T21:33:35;0.45;;;0.45;;
7497;SDS011;3790;48.806;9.140;2022-08-19T21:38:36;0.57;;;0.50;;
7497;SDS011;3790;48.806;9.140;2022-08-19T21:43:37;0.57;;;0.47;;
7497;SDS011;3790;48.806;9.140;2022-08-19T21:48:38;0.20;;;0.20;;
7497;SDS011;3790;48.806;9.140;2022-08-19T21:53:38;0.22;;;0.22;;
7497;SDS011;3790;48.806;9.140;2022-08-19T21:58:39;0.13;;;0.10;;
7497;SDS011;3790;48.806;9.140;2022-08-19T22:03:40;0.57;;;0.50;;
7497;SDS011;3790;48.806;9.140;2022-08-19T22:08:42;0.10;;;0.10;;
7497;SDS011;3790;48.806;9.140;2022-08-19T22:13:43;0.20;;;0.20;;
7497;SDS011;3790;48.806;9.140;2022-08-19T22:18:44;0.22;;;0.22;;
7497;SDS011;3790;48.806;9.140;2022-08-19T22:23:46;0.10;;;0.10;;
7497;SDS011;3790;48.806;9.140;2022-08-19T22:28:46;1.27;;;0.50;;
7497;SDS011;3790;48.806;9.140;2022-08-19T22:33:47;0.20;;;0.20;;
7497;SDS011;3790;48.806;9.140;2022-08-19T22:38:48;1.33;;;0.40;;
7497;SDS011;3790;48.806;9.140;2022-08-19T22:43:48;0.40;;;0.32;;
7497;SDS011;3790;48.806;9.140;2022-08-19T22:48:49;0.35;;;0.22;;
7497;SDS011;3790;48.806;9.140;2022-08-19T22:53:49;0.30;;;0.30;;
7497;SDS011;3790;48.806;9.140;2022-08-19T22:58:50;0.20;;;0.20;;
7497;SDS011;3790;48.806;9.140;2022-08-19T23:03:51;0.40;;;0.32;;
7497;SDS011;3790;48.806;9.140;2022-08-19T23:08:51;0.40;;;0.30;;
7497;SDS011;3790;48.806;9.140;2022-08-19T23:13:52;0.20;;;0.20;;
7497;SDS011;3790;48.806;9.140;2022-08-19T23:18:52;0.30;;;0.30;;
7497;SDS011;3790;48.806;9.140;2022-08-19T23:23:53;0.15;;;0.15;;
7497;SDS011;3790;48.806;9.140;2022-08-19T23:28:53;0.38;;;0.20;;
7497;SDS011;3790;48.806;9.140;2022-08-19T23:34:12;0.40;;;0.30;;
7497;SDS011;3790;48.806;9.140;2022-08-19T23:39:13;0.20;;;0.20;;
7497;SDS011;3790;48.806;9.140;2022-08-19T23:44:13;0.20;;;0.20;;
7497;SDS011;3790;48.806;9.140;2022-08-19T23:49:14;0.20;;;0.20;;
7497;SDS011;3790;48.806;9.140;2022-08-19T23:54:14;0.32;;;0.20;;
7497;SDS011;3790;48.806;9.140;2022-08-19T23:59:15;0.55;;;0.35;;
